Terminal Aerodrome Forecast
Issued by NWS

Home | Current Version | Previous Version | Graphics & Text | Print | Product List | Glossary On
Versions: 1 2 3 4 5 6 7 8 9 10 11 12 13 14 15 16 17 18 19 20 21 22 23 24
000
FTUS43 KGRB 132225 AAD
TAFCWA
TAF AMD
KCWA 132225Z 1322/1418 01011G17KT 2SM -SN SCT015 OVC025
      TEMPO 1322/1324 3/4SM -SN OVC015
     FM140000 02008KT P6SM OVC012
     FM140600 31004KT P6SM SCT025
     FM141200 26005KT P6SM BKN030=

USA.gov is the U.S. government's official web portal to all federal, state and local government web resources and services.